Time;durP1;ratioP1;P1;durP2;ratioP2;P2;SDS_P1;SDS_P2;PMS_P1;PMS_P2;Temp;Humidity;BMP_temperature;BMP_pressure;BME280_temperature;BME280_humidity;BME280_pressure;Samples;Min_cycle;Max_cycle;Signal;HPM_P1;HPM_P2
2022/03/12 00:01:47;;;;;;;4.27;1.20;;;9.30;99.90;;;;;;6222351;23;20196;-91
2022/03/12 00:06:55;;;;;;;1.63;1.17;;;9.20;99.90;;;;;;6236574;23;20184;-94
2022/03/12 00:09:27;;;;;;;2.40;1.30;;;9.20;99.90;;;;;;6236424;23;20181;-92
2022/03/12 00:12:01;;;;;;;2.70;1.50;;;9.20;99.90;;;;;;6237743;23;20176;-93
2022/03/12 00:14:36;;;;;;;3.23;1.07;;;9.20;99.90;;;;;;6233506;23;20168;-93
2022/03/12 00:17:10;;;;;;;5.30;1.20;;;9.20;99.90;;;;;;6232543;23;20168;-94
2022/03/12 00:19:44;;;;;;;2.93;1.13;;;9.20;99.90;;;;;;6233452;23;20213;-93
2022/03/12 00:22:15;;;;;;;3.27;1.27;;;9.20;99.90;;;;;;6238087;23;20172;-93
2022/03/12 00:24:47;;;;;;;2.07;1.10;;;9.20;99.90;;;;;;6233033;23;20275;-94
2022/03/12 00:27:20;;;;;;;1.57;1.10;;;9.10;99.90;;;;;;6234560;23;20169;-91
2022/03/12 00:29:54;;;;;;;1.97;1.27;;;9.10;99.90;;;;;;6234111;23;20172;-92
2022/03/12 00:32:26;;;;;;;1.53;1.03;;;9.00;99.90;;;;;;6236399;23;20175;-94
2022/03/12 00:34:58;;;;;;;1.53;1.10;;;9.00;99.90;;;;;;6238065;23;20157;-93
2022/03/12 00:37:30;;;;;;;1.40;1.20;;;8.90;99.90;;;;;;6236351;23;20208;-92
2022/03/12 00:40:02;;;;;;;1.57;1.10;;;9.00;99.90;;;;;;6237922;23;20196;-93
2022/03/12 00:42:36;;;;;;;4.27;1.10;;;9.00;99.90;;;;;;6237698;23;20169;-93
2022/03/12 00:45:10;;;;;;;2.93;1.30;;;9.00;99.90;;;;;;6227188;23;20176;-92
2022/03/12 00:47:42;;;;;;;1.63;0.83;;;8.90;99.90;;;;;;6240536;23;20172;-92
2022/03/12 00:50:14;;;;;;;3.27;1.20;;;8.90;99.90;;;;;;6214452;23;20172;-92
2022/03/12 00:52:45;;;;;;;1.70;1.20;;;8.80;99.90;;;;;;6241406;23;20176;-93
2022/03/12 00:55:17;;;;;;;5.60;1.10;;;8.70;99.90;;;;;;6240944;23;20157;-92
2022/03/12 00:57:51;;;;;;;1.47;0.93;;;8.70;99.90;;;;;;6241478;23;20181;-92
2022/03/12 01:00:26;;;;;;;2.23;1.17;;;8.70;99.90;;;;;;6240159;23;20180;-93
2022/03/12 01:02:58;;;;;;;2.60;1.10;;;8.70;99.90;;;;;;6215596;23;20276;-93
2022/03/12 01:05:48;;;;;;;2.60;1.13;;;8.60;99.90;;;;;;6210551;23;20186;-92
2022/03/12 01:08:22;;;;;;;3.80;1.20;;;8.60;99.90;;;;;;6232281;23;20180;-92
2022/03/12 01:10:58;;;;;;;2.53;0.97;;;8.60;99.90;;;;;;6236449;23;20172;-92
2022/03/12 01:13:32;;;;;;;1.93;1.20;;;8.60;99.90;;;;;;6209503;23;20168;-93
2022/03/12 01:16:04;;;;;;;3.43;1.10;;;8.60;99.90;;;;;;6236567;23;20172;-92
2022/03/12 01:18:40;;;;;;;1.47;1.17;;;8.60;99.90;;;;;;6237266;23;20176;-93
2022/03/12 01:21:17;;;;;;;2.90;1.00;;;8.50;99.90;;;;;;6239529;23;20172;-93
2022/03/12 01:23:49;;;;;;;1.10;0.90;;;8.50;99.90;;;;;;6234085;23;20192;-93
2022/03/12 01:26:22;;;;;;;2.87;1.20;;;8.50;99.90;;;;;;6225506;23;20180;-91
2022/03/12 01:28:56;;;;;;;2.67;1.83;;;8.50;99.90;;;;;;6172809;23;20323;-92
2022/03/12 01:31:28;;;;;;;3.67;2.43;;;8.50;99.90;;;;;;6206607;23;20181;-92
2022/03/12 01:33:59;;;;;;;2.80;1.23;;;8.40;99.90;;;;;;6207902;23;20208;-91
2022/03/12 01:36:32;;;;;;;1.67;1.23;;;8.40;99.90;;;;;;6206109;23;20169;-93
2022/03/12 01:39:04;;;;;;;4.57;1.37;;;8.40;99.90;;;;;;6204989;23;20187;-91
2022/03/12 01:41:43;;;;;;;2.60;1.57;;;8.50;99.90;;;;;;6207485;23;20177;-92
2022/03/12 01:44:17;;;;;;;2.10;1.20;;;8.50;99.90;;;;;;6181047;23;20243;-92
2022/03/12 01:46:51;;;;;;;2.13;1.40;;;8.50;99.90;;;;;;6181996;23;20201;-91
2022/03/12 01:49:24;;;;;;;2.60;1.30;;;8.60;99.90;;;;;;6206162;23;20222;-93
2022/03/12 01:51:56;;;;;;;2.80;1.50;;;8.50;99.90;;;;;;6206297;23;20177;-91
2022/03/12 01:54:30;;;;;;;5.43;3.30;;;8.50;99.90;;;;;;6207574;23;20169;-93
2022/03/12 01:57:03;;;;;;;8.30;4.87;;;8.50;99.90;;;;;;6206552;23;20166;-94
2022/03/12 01:59:36;;;;;;;4.40;3.00;;;8.40;99.90;;;;;;6211706;23;20173;-93
2022/03/12 02:02:12;;;;;;;3.50;2.43;;;8.40;99.90;;;;;;6207278;23;20172;-92
2022/03/12 02:04:52;;;;;;;6.10;2.03;;;8.40;99.90;;;;;;6206319;23;20203;-93
2022/03/12 02:07:23;;;;;;;4.10;1.90;;;8.30;99.90;;;;;;6205842;23;20173;-93
2022/03/12 02:09:55;;;;;;;3.53;1.63;;;8.30;99.90;;;;;;6206752;23;20169;-93
2022/03/12 02:12:26;;;;;;;2.53;1.67;;;8.30;99.90;;;;;;6207166;23;20173;-92
2022/03/12 02:15:02;;;;;;;2.00;1.60;;;8.40;99.90;;;;;;6207421;23;20168;-92
2022/03/12 02:17:34;;;;;;;4.03;1.67;;;8.40;99.90;;;;;;6205348;23;20169;-92
2022/03/12 02:20:05;;;;;;;3.07;1.70;;;8.30;99.90;;;;;;6204983;23;20219;-92
2022/03/12 02:22:38;;;;;;;2.90;1.97;;;8.30;99.90;;;;;;6206847;23;20169;-93
2022/03/12 02:25:12;;;;;;;2.50;1.87;;;8.30;99.90;;;;;;6205812;23;20208;-93
2022/03/12 02:27:45;;;;;;;6.17;1.70;;;8.20;99.90;;;;;;6209917;23;20227;-92
2022/03/12 02:30:18;;;;;;;2.60;1.57;;;8.10;99.90;;;;;;6236901;23;20218;-92
2022/03/12 02:33:01;;;;;;;2.70;1.70;;;8.10;99.90;;;;;;6237119;23;20180;-93
2022/03/12 02:35:35;;;;;;;2.63;2.03;;;8.10;99.90;;;;;;6238298;23;20225;-92
2022/03/12 02:38:08;;;;;;;2.70;1.67;;;8.10;99.90;;;;;;6236108;23;20623;-92
2022/03/12 02:40:44;;;;;;;3.53;1.80;;;8.00;99.90;;;;;;6232674;23;20168;-93
2022/03/12 02:43:21;;;;;;;8.53;2.40;;;8.10;99.90;;;;;;6235632;23;20176;-92
2022/03/12 02:45:53;;;;;;;3.10;1.67;;;8.10;99.90;;;;;;6236034;23;20224;-92
2022/03/12 02:48:25;;;;;;;1.83;1.40;;;8.00;99.90;;;;;;6236160;23;20216;-93
2022/03/12 02:50:57;;;;;;;2.47;1.33;;;8.00;99.90;;;;;;6238429;23;20165;-92
2022/03/12 02:53:31;;;;;;;1.70;1.47;;;8.00;99.90;;;;;;6238905;23;20157;-92
2022/03/12 02:56:05;;;;;;;2.33;1.70;;;8.00;99.90;;;;;;6239056;23;20179;-91
2022/03/12 02:58:36;;;;;;;2.00;1.60;;;8.00;99.90;;;;;;6230370;23;20181;-93
2022/03/12 03:01:08;;;;;;;3.27;1.37;;;8.00;99.90;;;;;;6209131;23;20179;-92
2022/03/12 03:03:41;;;;;;;2.63;1.57;;;8.00;99.90;;;;;;6236576;23;20169;-93
2022/03/12 03:06:15;;;;;;;2.20;1.30;;;7.90;99.90;;;;;;6236673;23;20204;-92
2022/03/12 03:08:46;;;;;;;1.87;1.33;;;7.90;99.90;;;;;;6241578;23;20160;-91
2022/03/12 03:11:19;;;;;;;2.23;1.60;;;7.90;99.90;;;;;;6243672;23;20265;-92
2022/03/12 03:19:09;;;;;;;3.43;1.93;;;8.00;99.90;;;;;;6235357;23;20238;-89
2022/03/12 03:21:43;;;;;;;2.93;2.10;;;8.00;99.90;;;;;;6242159;23;20167;-92
2022/03/12 03:24:28;;;;;;;4.17;1.90;;;8.00;99.90;;;;;;6199317;23;20229;-93
2022/03/12 03:27:04;;;;;;;4.33;2.07;;;7.90;99.90;;;;;;6208627;23;20176;-92
2022/03/12 03:29:36;;;;;;;3.10;1.70;;;7.90;99.90;;;;;;6207215;23;20177;-92
2022/03/12 03:32:07;;;;;;;3.70;2.00;;;7.90;99.90;;;;;;6203386;23;20181;-93
2022/03/12 03:34:40;;;;;;;2.93;1.93;;;8.00;99.90;;;;;;6205922;23;20169;-93
2022/03/12 03:37:12;;;;;;;2.40;2.00;;;7.90;99.90;;;;;;6206742;23;20188;-92
2022/03/12 03:39:43;;;;;;;3.30;2.40;;;7.90;99.90;;;;;;6192508;23;20177;-93
2022/03/12 03:42:22;;;;;;;3.83;2.90;;;7.80;99.90;;;;;;6191187;23;20216;-93
2022/03/12 03:44:57;;;;;;;4.10;3.53;;;7.80;99.90;;;;;;6191790;23;20572;-92
2022/03/12 03:47:28;;;;;;;4.13;3.40;;;7.80;99.90;;;;;;6189813;23;20189;-92
2022/03/12 03:49:59;;;;;;;3.80;2.77;;;7.80;99.90;;;;;;6191200;23;20252;-92
2022/03/12 03:52:30;;;;;;;5.37;3.23;;;7.70;99.90;;;;;;6195446;23;20181;-92
2022/03/12 03:55:02;;;;;;;3.33;2.73;;;7.70;99.90;;;;;;6191225;23;20176;-92
2022/03/12 03:57:36;;;;;;;3.23;2.40;;;7.60;99.90;;;;;;6195987;23;20200;-91
2022/03/12 04:00:09;;;;;;;4.53;2.37;;;7.60;99.90;;;;;;6206981;23;20164;-93
2022/03/12 04:02:40;;;;;;;7.77;2.60;;;7.60;99.90;;;;;;6207412;23;20188;-93
2022/03/12 04:05:12;;;;;;;4.27;2.90;;;7.60;99.90;;;;;;6207038;22;20255;-90
2022/03/12 04:07:44;;;;;;;4.00;2.93;;;7.60;99.90;;;;;;6208490;23;20161;-92
2022/03/12 04:10:20;;;;;;;2.90;2.13;;;7.60;99.90;;;;;;6209065;23;20176;-92
2022/03/12 04:12:53;;;;;;;3.20;2.57;;;7.60;99.90;;;;;;6207217;23;20165;-91
2022/03/12 04:15:25;;;;;;;4.40;2.43;;;7.50;99.90;;;;;;6206551;23;20180;-92
2022/03/12 04:17:57;;;;;;;5.50;2.50;;;7.50;99.90;;;;;;6207384;23;20204;-91
2022/03/12 04:20:29;;;;;;;3.93;2.50;;;7.50;99.90;;;;;;6204947;23;20170;-92
2022/03/12 04:23:00;;;;;;;3.30;2.70;;;7.50;99.90;;;;;;6208393;23;20173;-91
2022/03/12 04:25:35;;;;;;;4.40;3.00;;;7.50;99.90;;;;;;6208861;23;20200;-92
2022/03/12 04:28:10;;;;;;;5.10;3.20;;;7.50;99.90;;;;;;6209777;23;20204;-92
2022/03/12 04:30:42;;;;;;;4.97;3.40;;;7.50;99.90;;;;;;6181062;23;20248;-92
2022/03/12 04:33:15;;;;;;;4.60;3.00;;;7.40;99.90;;;;;;6204610;23;20176;-92
2022/03/12 04:35:46;;;;;;;3.60;3.10;;;7.40;99.90;;;;;;6179847;23;20162;-92
2022/03/12 04:38:18;;;;;;;4.80;2.77;;;7.40;99.90;;;;;;6202530;23;20177;-92
2022/03/12 04:41:00;;;;;;;4.57;2.93;;;7.40;99.90;;;;;;6156977;23;20224;-92
2022/03/12 04:43:34;;;;;;;6.57;3.03;;;7.40;99.90;;;;;;6179540;23;20173;-92
2022/03/12 04:46:06;;;;;;;5.20;3.33;;;7.40;99.90;;;;;;6204252;23;20201;-92
2022/03/12 04:48:37;;;;;;;3.43;2.53;;;7.30;99.90;;;;;;6177597;23;20175;-90
2022/03/12 04:51:10;;;;;;;5.77;2.50;;;7.40;99.90;;;;;;6208898;23;20204;-93
2022/03/12 04:53:42;;;;;;;6.27;3.00;;;7.30;99.90;;;;;;6212393;23;20192;-91
2022/03/12 04:58:48;;;;;;;4.27;2.67;;;7.60;99.90;;;;;;6242858;23;20229;-93
2022/03/12 05:01:29;;;;;;;3.60;2.30;;;7.80;99.90;;;;;;6203532;23;20226;-87
2022/03/12 05:04:02;;;;;;;5.27;2.83;;;8.00;99.90;;;;;;6234404;22;21418;-87
2022/03/12 05:06:34;;;;;;;4.43;2.50;;;8.10;99.90;;;;;;6214941;23;20176;-93
2022/03/12 05:09:05;;;;;;;3.13;2.00;;;8.30;99.90;;;;;;6189894;23;20200;-88
2022/03/12 05:11:38;;;;;;;2.97;1.67;;;8.40;99.90;;;;;;6244657;23;20164;-90
2022/03/12 05:14:15;;;;;;;4.80;1.67;;;8.50;99.90;;;;;;6244615;23;20172;-92
2022/03/12 05:16:48;;;;;;;4.17;1.73;;;8.60;99.90;;;;;;6242915;23;20591;-92
2022/03/12 05:19:21;;;;;;;3.83;1.70;;;8.60;99.90;;;;;;6243154;23;20212;-91
2022/03/12 05:21:53;;;;;;;3.83;1.83;;;8.50;99.90;;;;;;6244261;23;20192;-92
2022/03/12 05:24:24;;;;;;;3.03;1.40;;;8.50;99.90;;;;;;6244238;23;20205;-91
2022/03/12 05:26:56;;;;;;;4.40;1.53;;;8.40;99.90;;;;;;6243622;23;20184;-94
2022/03/12 05:29:30;;;;;;;5.83;3.10;;;8.40;99.90;;;;;;6244166;23;20156;-91
2022/03/12 05:32:02;;;;;;;2.93;1.67;;;8.40;99.90;;;;;;6244334;23;20191;-92
2022/03/12 05:34:32;;;;;;;2.50;1.83;;;8.40;99.90;;;;;;6244476;23;20167;-90
2022/03/12 05:37:05;;;;;;;3.30;1.80;;;8.40;99.90;;;;;;6243001;23;20180;-93
2022/03/12 05:42:07;;;;;;;2.70;1.57;;;8.40;99.90;;;;;;6212984;23;20197;-92
2022/03/12 05:44:41;;;;;;;2.40;1.53;;;8.40;99.90;;;;;;6212033;23;20186;-93
2022/03/12 05:47:13;;;;;;;2.73;1.60;;;8.30;99.90;;;;;;6213523;23;20185;-91
2022/03/12 05:49:46;;;;;;;2.03;1.23;;;8.20;99.90;;;;;;6211599;23;20647;-92
2022/03/12 05:52:18;;;;;;;4.00;1.50;;;8.30;99.90;;;;;;6196946;23;20276;-92
2022/03/12 05:54:49;;;;;;;2.60;1.30;;;8.30;99.90;;;;;;6196985;23;20184;-92
2022/03/12 05:57:20;;;;;;;2.27;1.37;;;8.20;99.90;;;;;;6167585;23;20269;-92
2022/03/12 05:59:54;;;;;;;4.60;1.30;;;8.20;99.90;;;;;;6168637;23;20184;-94
2022/03/12 06:02:26;;;;;;;2.07;1.17;;;8.10;99.90;;;;;;6194242;23;20244;-92
2022/03/12 06:04:59;;;;;;;2.07;1.33;;;8.10;99.90;;;;;;6195683;23;20192;-92
2022/03/12 06:07:32;;;;;;;2.10;1.23;;;8.00;99.90;;;;;;6201067;23;20188;-91
2022/03/12 06:10:04;;;;;;;2.40;1.20;;;8.10;99.90;;;;;;6203042;23;20196;-91
2022/03/12 06:12:35;;;;;;;2.43;1.23;;;8.10;99.90;;;;;;6194175;23;20176;-92
2022/03/12 06:15:09;;;;;;;1.27;1.00;;;8.10;99.90;;;;;;6193381;23;20188;-93
2022/03/12 06:17:40;;;;;;;2.87;1.00;;;8.20;99.90;;;;;;6193727;23;20180;-92
2022/03/12 06:20:12;;;;;;;3.20;1.10;;;8.20;99.90;;;;;;6200047;23;20195;-90
2022/03/12 06:22:44;;;;;;;1.57;1.13;;;8.10;99.90;;;;;;6199756;23;20180;-91
2022/03/12 06:25:17;;;;;;;2.43;1.10;;;8.10;99.90;;;;;;6195647;23;20193;-90
2022/03/12 06:27:53;;;;;;;3.33;1.00;;;8.10;99.90;;;;;;6197859;23;20184;-92
2022/03/12 06:30:28;;;;;;;2.00;1.13;;;8.00;99.90;;;;;;6202496;23;20596;-91
2022/03/12 06:32:59;;;;;;;1.47;0.90;;;7.90;99.90;;;;;;6196939;23;20200;-92
2022/03/12 06:35:30;;;;;;;2.33;1.03;;;7.80;99.90;;;;;;6198490;23;20207;-92
2022/03/12 06:38:01;;;;;;;1.50;0.97;;;7.80;99.90;;;;;;6201721;23;20181;-90
2022/03/12 06:40:33;;;;;;;1.77;1.00;;;7.80;99.90;;;;;;6218807;23;20188;-91
2022/03/12 06:43:05;;;;;;;1.07;0.93;;;7.70;99.90;;;;;;6231291;23;20234;-92
2022/03/12 06:45:39;;;;;;;1.23;0.90;;;7.70;99.90;;;;;;6230669;23;20172;-93
2022/03/12 06:48:10;;;;;;;3.07;1.10;;;7.70;99.90;;;;;;6221964;23;20184;-92
2022/03/12 06:50:42;;;;;;;1.20;0.90;;;7.70;99.90;;;;;;6222387;23;20190;-91
2022/03/12 06:53:13;;;;;;;3.67;1.20;;;7.60;99.90;;;;;;6222053;23;20452;-91
2022/03/12 06:55:46;;;;;;;1.43;1.00;;;7.60;99.90;;;;;;6222189;23;20180;-92
2022/03/12 06:58:18;;;;;;;2.83;0.97;;;7.50;99.90;;;;;;6194554;23;20176;-91
2022/03/12 07:00:51;;;;;;;1.77;1.00;;;7.40;99.90;;;;;;6222513;23;20180;-93
2022/03/12 07:03:22;;;;;;;1.90;1.00;;;7.40;99.90;;;;;;6237156;23;20184;-92
2022/03/12 07:05:54;;;;;;;1.20;0.87;;;7.50;99.90;;;;;;6232061;23;20175;-93
2022/03/12 07:08:25;;;;;;;1.23;0.93;;;7.40;99.90;;;;;;6222434;23;20190;-93
2022/03/12 07:13:51;;;;;;;1.53;1.10;;;7.40;99.90;;;;;;6197838;23;20252;-91
2022/03/12 07:16:24;;;;;;;2.93;1.50;;;7.40;99.90;;;;;;6190870;23;20169;-92
2022/03/12 07:18:56;;;;;;;2.43;1.17;;;7.40;99.90;;;;;;6193670;23;20593;-91
2022/03/12 07:21:27;;;;;;;1.60;1.10;;;7.30;99.90;;;;;;6206164;23;20196;-92
2022/03/12 07:23:59;;;;;;;1.30;1.00;;;7.30;99.90;;;;;;6194883;23;20188;-92
2022/03/12 07:26:30;;;;;;;1.07;0.83;;;7.30;99.90;;;;;;6196454;23;20208;-91
2022/03/12 07:29:01;;;;;;;2.33;1.00;;;7.30;99.90;;;;;;6191372;23;20205;-92
2022/03/12 07:31:37;;;;;;;3.23;1.20;;;7.20;99.90;;;;;;6190735;23;20173;-92
2022/03/12 07:34:09;;;;;;;4.00;0.93;;;7.10;99.90;;;;;;6194646;23;20169;-92
2022/03/12 07:36:44;;;;;;;2.97;1.07;;;7.10;99.90;;;;;;6195297;23;20165;-91
2022/03/12 07:39:16;;;;;;;2.37;1.17;;;7.10;99.90;;;;;;6197525;23;20252;-92
2022/03/12 07:41:48;;;;;;;1.73;0.80;;;7.20;99.90;;;;;;6204015;23;20166;-91
2022/03/12 07:44:19;;;;;;;1.10;0.97;;;7.10;99.90;;;;;;6162328;23;20236;-91
2022/03/12 07:46:52;;;;;;;1.23;0.77;;;7.20;99.90;;;;;;6186323;23;20197;-92
2022/03/12 07:49:25;;;;;;;1.37;0.70;;;7.10;99.90;;;;;;6206465;23;20166;-92
2022/03/12 07:51:56;;;;;;;1.27;0.90;;;7.10;99.90;;;;;;6198830;23;20165;-92
2022/03/12 07:54:27;;;;;;;1.30;0.93;;;7.00;99.90;;;;;;6194387;23;20192;-91
2022/03/12 07:56:58;;;;;;;1.63;1.00;;;7.00;99.90;;;;;;6191563;23;20469;-91
2022/03/12 07:59:31;;;;;;;2.23;1.00;;;7.00;99.90;;;;;;6164892;23;20196;-92
2022/03/12 08:02:03;;;;;;;1.30;0.80;;;7.00;99.90;;;;;;6166847;23;20188;-92
2022/03/12 08:04:35;;;;;;;1.63;0.97;;;7.00;99.90;;;;;;6191173;23;20511;-93
2022/03/12 08:07:07;;;;;;;1.40;0.90;;;7.00;99.90;;;;;;6190378;23;20275;-92
2022/03/12 08:09:42;;;;;;;1.30;0.90;;;7.10;99.90;;;;;;6190839;23;20173;-91
2022/03/12 08:12:15;;;;;;;1.50;1.00;;;7.10;99.90;;;;;;6190618;23;20192;-92
2022/03/12 08:14:46;;;;;;;1.27;0.87;;;7.10;99.90;;;;;;6192436;23;20600;-91
2022/03/12 08:17:20;;;;;;;4.47;1.20;;;7.00;99.90;;;;;;6191098;23;20173;-92
2022/03/12 08:19:51;;;;;;;1.70;1.10;;;7.00;99.90;;;;;;6192305;23;20181;-93
2022/03/12 08:22:24;;;;;;;1.60;1.10;;;6.90;99.90;;;;;;6190292;23;20169;-92
2022/03/12 08:24:54;;;;;;;1.70;0.87;;;6.80;99.90;;;;;;6193476;23;20176;-92
2022/03/12 08:27:26;;;;;;;1.83;0.90;;;6.90;99.90;;;;;;6189291;23;20216;-92
2022/03/12 08:29:58;;;;;;;1.97;1.10;;;6.90;99.90;;;;;;6190480;23;20636;-93
2022/03/12 08:32:34;;;;;;;1.60;0.90;;;6.90;99.90;;;;;;6191584;23;20220;-93
2022/03/12 08:35:07;;;;;;;2.00;0.90;;;6.90;99.90;;;;;;6191139;23;20165;-92
2022/03/12 08:37:39;;;;;;;1.40;0.80;;;6.90;99.90;;;;;;6190771;23;20187;-92
2022/03/12 08:40:14;;;;;;;1.73;0.90;;;6.90;99.90;;;;;;6190018;23;20231;-91
2022/03/12 08:42:46;;;;;;;2.17;0.90;;;6.90;99.90;;;;;;6192588;23;20216;-93
2022/03/12 08:45:17;;;;;;;1.73;0.90;;;6.90;99.90;;;;;;6193969;23;20213;-91
2022/03/12 08:47:51;;;;;;;3.73;0.97;;;6.80;99.90;;;;;;6195690;23;20193;-93
2022/03/12 08:50:23;;;;;;;2.33;1.27;;;6.80;99.90;;;;;;6165525;23;20236;-93
2022/03/12 08:52:54;;;;;;;1.67;1.00;;;6.80;99.90;;;;;;6204612;23;20169;-92
2022/03/12 08:55:25;;;;;;;1.53;1.43;;;6.90;99.90;;;;;;6197470;23;20165;-92
2022/03/12 08:57:56;;;;;;;1.70;1.10;;;6.90;99.90;;;;;;6193249;23;20172;-92
2022/03/12 09:00:27;;;;;;;2.70;0.90;;;6.80;99.90;;;;;;6191458;23;20177;-91
2022/03/12 09:03:00;;;;;;;1.47;1.10;;;6.80;99.90;;;;;;6195250;23;20167;-91
2022/03/12 09:05:32;;;;;;;1.53;1.03;;;6.80;99.90;;;;;;6191870;23;20180;-92
2022/03/12 09:08:02;;;;;;;1.23;1.03;;;6.80;99.90;;;;;;6192364;23;20204;-92
2022/03/12 09:10:34;;;;;;;1.03;0.90;;;6.80;99.90;;;;;;6190150;23;20212;-92
2022/03/12 09:13:06;;;;;;;1.50;0.90;;;6.70;99.90;;;;;;6165093;23;20203;-91
2022/03/12 09:15:38;;;;;;;1.43;1.20;;;6.70;99.90;;;;;;6165437;23;20201;-92
2022/03/12 09:18:12;;;;;;;1.57;0.90;;;6.70;99.90;;;;;;6190293;23;20181;-90
2022/03/12 09:20:46;;;;;;;1.13;1.03;;;6.70;99.90;;;;;;6189938;23;20188;-93
2022/03/12 09:23:18;;;;;;;2.50;1.10;;;6.70;99.90;;;;;;6165596;23;20210;-91
2022/03/12 09:25:50;;;;;;;1.53;1.10;;;6.80;99.90;;;;;;6190318;23;20173;-92
2022/03/12 09:28:22;;;;;;;1.30;0.90;;;6.70;99.90;;;;;;6190489;23;20224;-90
2022/03/12 09:30:54;;;;;;;1.60;1.00;;;6.70;99.90;;;;;;6195083;23;20192;-91
2022/03/12 09:33:27;;;;;;;1.40;0.83;;;6.70;99.90;;;;;;6193945;23;20183;-92
2022/03/12 09:35:59;;;;;;;1.80;1.13;;;6.60;99.90;;;;;;6191146;23;20620;-92
2022/03/12 09:38:30;;;;;;;1.87;0.97;;;6.60;99.90;;;;;;6195362;23;20169;-92
2022/03/12 09:41:00;;;;;;;2.37;1.20;;;6.50;99.90;;;;;;6194481;23;20204;-92
2022/03/12 09:43:32;;;;;;;1.47;0.90;;;6.50;99.90;;;;;;6193484;23;20177;-92
2022/03/12 09:46:03;;;;;;;5.70;1.17;;;6.40;99.90;;;;;;6193513;23;20193;-92
2022/03/12 09:48:36;;;;;;;1.20;1.00;;;6.40;99.90;;;;;;6169146;23;20238;-91
2022/03/12 09:51:07;;;;;;;1.50;0.97;;;6.30;99.90;;;;;;6192876;23;20166;-92
2022/03/12 09:53:39;;;;;;;1.23;0.97;;;6.20;99.90;;;;;;6197751;23;20220;-93
2022/03/12 09:56:10;;;;;;;2.10;1.00;;;6.10;99.90;;;;;;6211958;23;20507;-90
2022/03/12 09:58:43;;;;;;;1.83;0.90;;;6.10;99.90;;;;;;6163379;23;20185;-92
2022/03/12 10:01:14;;;;;;;3.73;1.10;;;6.10;99.90;;;;;;6210820;23;20188;-90
2022/03/12 10:03:47;;;;;;;2.53;1.27;;;6.20;99.90;;;;;;6209482;23;20251;-92
2022/03/12 10:06:18;;;;;;;2.43;1.10;;;6.20;99.90;;;;;;6201029;23;20169;-91
2022/03/12 10:08:49;;;;;;;2.10;1.30;;;6.20;99.90;;;;;;6201758;23;20201;-92
2022/03/12 10:11:20;;;;;;;3.00;1.20;;;6.10;99.90;;;;;;6201275;23;20180;-91
2022/03/12 10:13:52;;;;;;;1.63;1.17;;;6.30;99.90;;;;;;6196339;23;20475;-91
2022/03/12 10:16:24;;;;;;;2.17;1.10;;;6.30;99.90;;;;;;6193540;23;20205;-92
2022/03/12 10:18:59;;;;;;;2.47;1.30;;;6.30;99.90;;;;;;6192999;23;20179;-91
2022/03/12 10:21:32;;;;;;;2.97;1.20;;;6.40;99.90;;;;;;6194193;23;20634;-91
2022/03/12 10:24:02;;;;;;;1.97;1.20;;;6.30;99.90;;;;;;6193020;23;20194;-91
2022/03/12 10:26:33;;;;;;;2.17;1.20;;;6.30;99.90;;;;;;6194156;23;20184;-92
2022/03/12 10:29:05;;;;;;;1.90;1.30;;;6.30;99.90;;;;;;6204271;23;20189;-92
2022/03/12 10:31:37;;;;;;;2.07;1.20;;;6.30;99.90;;;;;;6208711;23;20179;-89
2022/03/12 10:34:19;;;;;;;1.33;1.17;;;6.30;99.90;;;;;;6205536;23;20259;-92
2022/03/12 10:36:52;;;;;;;1.27;1.10;;;6.40;99.90;;;;;;6193884;23;20662;-91
2022/03/12 10:39:34;;;;;;;2.10;1.00;;;6.30;99.90;;;;;;6192816;23;20173;-91
2022/03/12 10:42:08;;;;;;;3.17;1.20;;;6.40;99.90;;;;;;6192271;23;20216;-92
2022/03/12 10:44:40;;;;;;;2.70;1.30;;;6.40;99.90;;;;;;6193942;23;20170;-92
2022/03/12 10:47:20;;;;;;;1.57;1.27;;;6.50;99.90;;;;;;6193840;23;20177;-92
2022/03/12 10:50:05;;;;;;;2.07;0.90;;;6.50;99.90;;;;;;6193273;23;20208;-93
2022/03/12 10:52:37;;;;;;;3.13;1.07;;;6.50;99.90;;;;;;6166512;23;20179;-91
2022/03/12 10:55:17;;;;;;;2.73;1.07;;;6.50;99.90;;;;;;6193019;23;20170;-91
2022/03/12 10:57:58;;;;;;;1.87;0.83;;;6.50;99.90;;;;;;6191881;23;20185;-92
2022/03/12 11:00:32;;;;;;;1.97;1.10;;;6.50;99.90;;;;;;6193086;23;20169;-91
2022/03/12 11:03:05;;;;;;;1.77;1.10;;;6.50;99.90;;;;;;6167746;23;20165;-92
2022/03/12 11:05:39;;;;;;;2.47;1.13;;;6.50;99.90;;;;;;6193211;23;20181;-90
2022/03/12 11:08:20;;;;;;;1.33;1.03;;;6.50;99.90;;;;;;6166875;23;20200;-93
2022/03/12 11:10:57;;;;;;;1.40;1.07;;;6.50;99.90;;;;;;6202132;23;20177;-91
2022/03/12 11:13:40;;;;;;;1.30;1.03;;;6.50;99.90;;;;;;6184820;23;20223;-91
2022/03/12 11:16:16;;;;;;;2.30;0.90;;;6.50;99.90;;;;;;6200571;23;20225;-93
2022/03/12 11:19:11;;;;;;;1.50;0.93;;;6.40;99.90;;;;;;6192409;23;20177;-92
2022/03/12 11:21:51;;;;;;;2.30;1.20;;;6.40;99.90;;;;;;6193489;23;20565;-93
2022/03/12 11:24:24;;;;;;;1.53;1.00;;;6.40;99.90;;;;;;6191948;23;20335;-91
2022/03/12 11:26:58;;;;;;;1.50;1.20;;;6.40;99.90;;;;;;6191810;23;20599;-91
2022/03/12 11:29:31;;;;;;;2.03;1.30;;;6.40;99.90;;;;;;6165465;23;20193;-92
2022/03/12 11:32:04;;;;;;;1.67;1.13;;;6.40;99.90;;;;;;6192269;23;20177;-91
2022/03/12 11:34:39;;;;;;;1.20;0.90;;;6.40;99.90;;;;;;6191881;23;20177;-92
2022/03/12 11:37:16;;;;;;;2.20;1.30;;;6.40;99.90;;;;;;6190176;23;20180;-92
2022/03/12 11:39:49;;;;;;;1.30;1.10;;;6.40;99.90;;;;;;6191121;23;20175;-93
2022/03/12 11:42:23;;;;;;;1.47;1.03;;;6.40;99.90;;;;;;6191220;23;20169;-92
2022/03/12 11:44:55;;;;;;;1.23;1.10;;;6.30;99.90;;;;;;6191606;23;20165;-92
2022/03/12 11:47:29;;;;;;;1.50;0.90;;;6.30;99.90;;;;;;6193151;23;20196;-92
2022/03/12 11:50:03;;;;;;;2.13;1.40;;;6.30;99.90;;;;;;6193471;23;20674;-92
2022/03/12 11:52:37;;;;;;;1.30;1.10;;;6.20;99.90;;;;;;6193510;23;20176;-92
2022/03/12 11:55:18;;;;;;;2.23;1.10;;;6.20;99.90;;;;;;6191687;23;20169;-92
2022/03/12 11:57:50;;;;;;;3.33;1.30;;;6.20;99.90;;;;;;6192367;23;20638;-89
2022/03/12 12:00:24;;;;;;;2.03;1.30;;;6.20;99.90;;;;;;6191107;23;20596;-92
2022/03/12 12:02:55;;;;;;;1.77;1.07;;;6.10;99.90;;;;;;6195698;23;20187;-90
2022/03/12 12:05:30;;;;;;;2.77;1.40;;;6.10;99.90;;;;;;6195259;23;20173;-92
2022/03/12 12:08:08;;;;;;;1.60;1.10;;;6.10;99.90;;;;;;6191585;23;20631;-92
2022/03/12 12:10:42;;;;;;;1.73;1.20;;;6.10;99.90;;;;;;6209509;23;20214;-91
2022/03/12 12:13:16;;;;;;;2.27;1.03;;;6.10;99.90;;;;;;6211560;23;20203;-92
2022/03/12 12:15:47;;;;;;;2.70;1.30;;;6.00;99.90;;;;;;6210891;23;20169;-93
2022/03/12 12:18:18;;;;;;;2.80;1.07;;;6.00;99.90;;;;;;6199474;23;20215;-91
2022/03/12 12:20:49;;;;;;;1.57;1.00;;;6.10;99.90;;;;;;6200268;23;20165;-91
2022/03/12 12:23:23;;;;;;;1.47;1.07;;;6.20;99.90;;;;;;6197728;23;20176;-92
2022/03/12 12:25:59;;;;;;;1.40;1.30;;;6.30;99.90;;;;;;6198618;23;20168;-92
2022/03/12 12:28:31;;;;;;;1.43;0.80;;;6.40;99.90;;;;;;6189598;23;20172;-92
2022/03/12 12:31:02;;;;;;;2.27;0.87;;;6.40;99.90;;;;;;6193873;23;20646;-92
2022/03/12 12:33:35;;;;;;;1.37;1.00;;;6.40;99.90;;;;;;6190534;23;20207;-92
2022/03/12 12:36:14;;;;;;;3.30;0.97;;;6.50;99.90;;;;;;6189542;23;20239;-92
2022/03/12 12:39:07;;;;;;;2.00;0.77;;;6.50;99.90;;;;;;6189479;23;20196;-92
2022/03/12 12:41:53;;;;;;;0.93;0.80;;;6.40;99.90;;;;;;6189054;23;20256;-92
2022/03/12 12:44:39;;;;;;;1.30;0.80;;;6.50;99.90;;;;;;6188305;23;20184;-91
2022/03/12 12:47:20;;;;;;;0.90;0.83;;;6.60;99.90;;;;;;6188237;23;20169;-91
2022/03/12 12:49:56;;;;;;;1.03;0.63;;;6.60;99.90;;;;;;6164013;23;20239;-91
2022/03/12 12:52:32;;;;;;;1.10;0.77;;;6.70;99.90;;;;;;6203510;23;20188;-91
2022/03/12 12:55:08;;;;;;;0.77;0.70;;;6.70;99.90;;;;;;6194549;23;20169;-92
2022/03/12 12:57:44;;;;;;;1.33;0.73;;;6.70;99.90;;;;;;6193566;23;20168;-93
2022/03/12 13:00:34;;;;;;;1.63;0.70;;;6.70;99.90;;;;;;6193488;23;20223;-92
2022/03/12 13:03:13;;;;;;;1.23;0.60;;;6.70;99.90;;;;;;6197631;23;20232;-92
2022/03/12 13:05:48;;;;;;;2.53;0.67;;;6.70;99.90;;;;;;6192631;23;20176;-92
2022/03/12 13:08:26;;;;;;;3.20;0.90;;;6.70;99.90;;;;;;6188247;23;20177;-92
2022/03/12 13:11:29;;;;;;;2.07;0.90;;;6.70;99.90;;;;;;6191252;23;20184;-90
2022/03/12 13:14:01;;;;;;;1.53;0.77;;;6.70;99.90;;;;;;6201088;23;20169;-91
2022/03/12 13:16:50;;;;;;;1.20;0.90;;;6.70;99.90;;;;;;6192086;23;20511;-92
2022/03/12 13:19:43;;;;;;;0.77;0.77;;;6.70;99.90;;;;;;6189129;23;20169;-92
2022/03/12 13:22:17;;;;;;;2.07;0.97;;;6.70;99.90;;;;;;6188783;23;20172;-92
2022/03/12 13:24:52;;;;;;;0.90;0.73;;;6.70;99.90;;;;;;6189233;23;20192;-91
2022/03/12 13:27:29;;;;;;;1.43;0.80;;;6.70;99.90;;;;;;6188885;23;20207;-90
2022/03/12 13:30:14;;;;;;;1.27;0.70;;;6.70;99.90;;;;;;6191111;23;20228;-91
2022/03/12 13:32:46;;;;;;;1.10;0.80;;;6.70;99.90;;;;;;6190846;23;20193;-92
2022/03/12 13:35:22;;;;;;;0.70;0.60;;;6.70;99.90;;;;;;6190971;23;20188;-91
2022/03/12 13:37:54;;;;;;;2.87;0.90;;;6.70;99.90;;;;;;6190954;23;20180;-91
2022/03/12 13:40:26;;;;;;;0.80;0.80;;;6.70;99.90;;;;;;6191658;23;20173;-92
2022/03/12 13:43:01;;;;;;;1.10;0.90;;;6.70;99.90;;;;;;6191285;23;20532;-90
2022/03/12 13:45:33;;;;;;;1.53;0.70;;;6.60;99.90;;;;;;6165340;23;20165;-92
2022/03/12 13:48:05;;;;;;;1.00;0.67;;;6.60;99.90;;;;;;6190225;23;20191;-92